Time;durP1;ratioP1;P1;durP2;ratioP2;P2;SDS_P1;SDS_P2;PMS_P1;PMS_P2;Temp;Humidity;BMP_temperature;BMP_pressure;BME280_temperature;BME280_humidity;BME280_pressure;Samples;Min_cycle;Max_cycle;Signal;HPM_P1;HPM_P2
2023/11/14 00:00:44;;;;;;;10.53;7.03;;;;;;;6.28;100.00;101412.00;2595482;22;20212;-70
2023/11/14 00:01:45;;;;;;;9.23;5.80;;;;;;;6.65;100.00;101473.97;2595175;22;20624;-70
2023/11/14 00:02:46;;;;;;;8.20;5.87;;;;;;;6.63;100.00;101478.28;2595001;22;20236;-70
2023/11/14 00:03:48;;;;;;;9.43;5.75;;;;;;;6.63;100.00;101470.81;2581026;23;20159;-70
2023/11/14 00:04:48;;;;;;;13.63;7.05;;;;;;;6.61;100.00;101473.16;2582024;22;20172;-69
2023/11/14 00:05:48;;;;;;;9.93;6.03;;;;;;;6.61;100.00;101473.16;2595240;22;20154;-69
2023/11/14 00:06:49;;;;;;;10.40;6.30;;;;;;;6.60;100.00;101474.34;2595402;22;20155;-69
2023/11/14 00:07:49;;;;;;;8.43;5.80;;;;;;;6.60;100.00;101470.78;2595224;22;20162;-69
2023/11/14 00:08:50;;;;;;;11.57;6.70;;;;;;;6.56;100.00;101472.75;2595555;22;20183;-69
2023/11/14 00:09:51;;;;;;;9.93;5.43;;;;;;;6.48;100.00;101471.09;2595263;22;20181;-70
2023/11/14 00:10:52;;;;;;;11.10;7.03;;;;;;;6.49;100.00;101476.25;2595335;22;20194;-69
2023/11/14 00:11:53;;;;;;;9.57;6.20;;;;;;;6.47;100.00;101477.78;2595253;22;20151;-69
2023/11/14 00:12:54;;;;;;;12.57;5.95;;;;;;;6.44;100.00;101473.03;2593953;22;20155;-69
2023/11/14 00:13:54;;;;;;;12.33;7.27;;;;;;;6.43;100.00;101476.97;2594929;22;20637;-69
2023/11/14 00:14:55;;;;;;;15.80;7.83;;;;;;;6.04;100.00;101418.91;2595362;22;20506;-69
2023/11/14 00:15:55;;;;;;;15.90;6.90;;;;;;;6.41;100.00;101471.84;2595212;22;20151;-69
2023/11/14 00:16:56;;;;;;;12.43;7.10;;;;;;;6.39;100.00;101465.94;2595576;22;20476;-70
2023/11/14 00:17:58;;;;;;;9.73;6.03;;;;;;;6.32;100.00;101457.66;2595162;22;20150;-69
2023/11/14 00:18:58;;;;;;;9.73;6.35;;;;;;;6.35;100.00;101478.88;2595243;22;20147;-69
2023/11/14 00:19:59;;;;;;;10.43;6.77;;;;;;;6.38;100.00;101471.84;2595236;22;20188;-69
2023/11/14 00:21:00;;;;;;;9.27;5.37;;;;;;;6.39;100.00;101465.94;2595216;22;20151;-70
2023/11/14 00:22:01;;;;;;;12.27;6.93;;;;;;;6.34;100.00;101466.31;2594836;22;20285;-69
2023/11/14 00:23:01;;;;;;;12.50;6.35;;;;;;;5.61;100.00;101358.44;2594654;22;20627;-70
2023/11/14 00:24:02;;;;;;;11.13;7.17;;;;;;;6.32;100.00;101457.66;2595489;22;20154;-70
2023/11/14 00:25:02;;;;;;;11.23;5.03;;;;;;;6.28;100.00;101453.28;2594862;22;20595;-69
2023/11/14 00:26:03;;;;;;;10.93;6.57;;;;;;;5.57;100.00;101354.84;2595326;22;20174;-69
2023/11/14 00:27:04;;;;;;;12.53;6.03;;;;;;;6.22;100.00;101458.38;2594475;22;20228;-70
2023/11/14 00:28:05;;;;;;;9.88;4.65;;;;;;;6.19;100.00;101453.63;2595399;22;20174;-69
2023/11/14 00:29:05;;;;;;;8.23;6.13;;;;;;;5.36;100.00;101330.75;2595141;22;20600;-69
2023/11/14 00:30:06;;;;;;;13.33;5.40;;;;;;;5.75;100.00;101375.06;2595434;22;20562;-70
2023/11/14 00:31:07;;;;;;;9.97;5.50;;;;;;;6.22;100.00;101447.34;2595136;22;20147;-69
2023/11/14 00:32:08;;;;;;;9.50;5.70;;;;;;;6.18;100.00;101443.78;2595002;22;20150;-70
2023/11/14 00:33:08;;;;;;;11.60;5.07;;;;;;;6.17;100.00;101452.41;2580946;23;20436;-69
2023/11/14 00:34:09;;;;;;;10.43;5.53;;;;;;;6.08;100.00;101457.44;2581875;23;20493;-69
2023/11/14 00:35:10;;;;;;;11.18;5.72;;;;;;;5.36;100.00;101335.44;2595218;22;20739;-70
2023/11/14 00:36:10;;;;;;;12.33;4.93;;;;;;;6.10;100.00;101450.41;2595476;22;20560;-69
2023/11/14 00:37:13;;;;;;;11.67;6.33;;;;;;;6.13;100.00;101457.09;2594998;22;20221;-69
2023/11/14 00:38:14;;;;;;;12.60;6.57;;;;;;;6.10;100.00;101457.88;2595149;22;20147;-69
2023/11/14 00:39:16;;;;;;;11.33;6.00;;;;;;;5.94;100.00;101432.59;2594972;22;20147;-70
2023/11/14 00:40:17;;;;;;;12.73;5.75;;;;;;;5.94;100.00;101436.13;2595297;22;20208;-70
2023/11/14 00:41:17;;;;;;;8.00;5.37;;;;;;;6.08;100.00;101455.50;2594424;22;20151;-70
2023/11/14 00:42:18;;;;;;;11.07;4.87;;;;;;;6.08;100.00;101462.97;2594830;22;20155;-69
2023/11/14 00:43:19;;;;;;;10.00;5.90;;;;;;;6.07;100.00;101448.44;2594391;22;20155;-70
2023/11/14 00:44:44;;;;;;;9.50;5.10;;;;;;;6.08;100.00;101450.00;2594964;22;20159;-70
2023/11/14 00:45:45;;;;;;;10.93;6.45;;;;;;;5.92;100.00;101437.69;2594752;22;20537;-70
2023/11/14 00:46:45;;;;;;;7.07;4.85;;;;;;;6.09;100.00;101454.34;2595174;22;20551;-70
2023/11/14 00:47:46;;;;;;;12.17;5.23;;;;;;;6.09;100.00;101456.28;2594972;22;20252;-70
2023/11/14 00:48:46;;;;;;;10.00;5.30;;;;;;;5.96;100.00;101425.56;2595262;22;20649;-69
2023/11/14 00:49:47;;;;;;;7.40;4.10;;;;;;;6.11;100.00;101453.94;2595071;22;20481;-70
2023/11/14 00:50:48;;;;;;;7.47;4.50;;;;;;;6.12;100.00;101448.06;2595502;22;20969;-69
2023/11/14 00:51:48;;;;;;;11.70;5.47;;;;;;;6.03;100.00;101424.78;2595035;22;20715;-70
2023/11/14 00:52:49;;;;;;;8.37;4.83;;;;;;;6.13;100.00;101446.09;2594654;22;20147;-69
2023/11/14 00:53:51;;;;;;;7.33;4.47;;;;;;;6.14;100.00;101428.41;2594212;22;20155;-70
2023/11/14 00:54:51;;;;;;;10.70;5.03;;;;;;;6.16;100.00;101428.81;2595207;22;20155;-70
2023/11/14 00:55:52;;;;;;;9.00;4.50;;;;;;;6.16;100.00;101426.84;2594231;22;20154;-69
2023/11/14 00:56:53;;;;;;;6.90;4.30;;;;;;;6.17;100.00;101430.41;2595330;22;20147;-70
2023/11/14 00:57:53;;;;;;;9.00;4.85;;;;;;;6.16;100.00;101424.09;2595048;22;20151;-70
2023/11/14 00:58:54;;;;;;;13.40;5.87;;;;;;;6.11;100.00;101420.94;2581672;23;20163;-69
2023/11/14 00:59:54;;;;;;;13.57;6.40;;;;;;;5.61;100.00;101350.19;2581271;23;20149;-69
2023/11/14 01:00:55;;;;;;;10.27;5.03;;;;;;;6.15;100.00;101424.50;2595056;22;20147;-69
2023/11/14 01:01:58;;;;;;;6.33;4.23;;;;;;;6.08;100.00;101416.19;2594853;22;20688;-69
2023/11/14 01:03:00;;;;;;;8.52;4.47;;;;;;;5.91;100.00;101394.84;2594612;22;20143;-70
2023/11/14 01:04:02;;;;;;;6.88;4.68;;;;;;;6.09;100.00;101418.56;2595113;22;20154;-70
2023/11/14 01:05:03;;;;;;;7.00;4.97;;;;;;;5.36;100.00;101319.75;2594803;22;20150;-69
2023/11/14 01:06:05;;;;;;;13.07;4.50;;;;;;;6.10;100.00;101424.84;2594938;22;20143;-70
2023/11/14 01:07:07;;;;;;;10.27;5.03;;;;;;;5.33;100.00;101298.50;2595038;22;20143;-70
2023/11/14 01:08:08;;;;;;;6.38;4.32;;;;;;;6.10;100.00;101430.38;2595109;22;20143;-69
2023/11/14 01:09:09;;;;;;;10.57;5.30;;;;;;;6.06;100.00;101422.06;2594818;22;20727;-70
2023/11/14 01:10:11;;;;;;;7.80;4.15;;;;;;;6.10;100.00;101436.63;2594485;22;20597;-69
2023/11/14 01:11:11;;;;;;;8.13;4.03;;;;;;;5.37;100.00;101313.09;2594983;22;20147;-70
2023/11/14 01:12:12;;;;;;;9.43;4.63;;;;;;;6.10;100.00;101431.13;2594724;22;20154;-69
2023/11/14 01:13:12;;;;;;;5.87;3.73;;;;;;;5.86;100.00;101386.94;2594347;22;20429;-70
2023/11/14 01:14:13;;;;;;;14.97;4.70;;;;;;;6.12;100.00;101428.00;2595096;22;20226;-70
2023/11/14 01:15:13;;;;;;;11.90;4.77;;;;;;;6.01;100.00;101419.66;2595135;22;20154;-69
2023/11/14 01:16:17;;;;;;;7.63;4.10;;;;;;;6.14;100.00;101431.97;2595190;22;20151;-70
2023/11/14 01:17:17;;;;;;;14.55;4.30;;;;;;;5.83;100.00;101379.44;2594858;22;20151;-70
2023/11/14 01:18:18;;;;;;;9.97;4.37;;;;;;;6.13;100.00;101424.88;2595076;22;20175;-70
2023/11/14 01:19:18;;;;;;;6.97;4.17;;;;;;;6.14;100.00;101428.41;2594943;22;20151;-69
2023/11/14 01:20:19;;;;;;;8.40;4.70;;;;;;;6.11;100.00;101423.69;2594757;22;20644;-69
2023/11/14 01:21:20;;;;;;;8.73;4.03;;;;;;;6.19;100.00;101433.53;2594991;22;20603;-70
2023/11/14 01:22:20;;;;;;;13.17;5.00;;;;;;;6.17;100.00;101436.72;2594895;22;20272;-69
2023/11/14 01:23:21;;;;;;;8.93;4.13;;;;;;;6.15;100.00;101430.00;2594397;22;20205;-70
2023/11/14 01:24:21;;;;;;;7.77;3.93;;;;;;;6.22;100.00;101430.84;2594130;22;20774;-70
2023/11/14 01:25:22;;;;;;;8.67;4.50;;;;;;;6.24;100.00;101430.44;2594836;22;20277;-70
2023/11/14 01:26:22;;;;;;;7.17;3.83;;;;;;;6.25;100.00;101427.31;2595071;22;20136;-70
2023/11/14 01:27:24;;;;;;;9.53;3.63;;;;;;;6.13;100.00;101430.38;2594758;22;20215;-70
2023/11/14 01:28:24;;;;;;;10.38;4.45;;;;;;;5.99;100.00;101402.75;2595097;22;20151;-69
2023/11/14 01:29:25;;;;;;;12.23;4.10;;;;;;;6.20;100.00;101422.16;2594822;22;20147;-70
2023/11/14 01:30:25;;;;;;;7.17;4.23;;;;;;;6.13;100.00;101421.31;2595218;22;20766;-69
2023/11/14 01:31:26;;;;;;;9.97;4.80;;;;;;;6.11;100.00;101423.69;2594906;22;20148;-70
2023/11/14 01:32:26;;;;;;;13.20;4.93;;;;;;;6.17;100.00;101428.44;2594585;22;20157;-69
2023/11/14 01:33:27;;;;;;;8.60;4.13;;;;;;;6.18;100.00;101430.03;2594313;22;20151;-70
2023/11/14 01:34:27;;;;;;;10.90;4.70;;;;;;;6.20;100.00;101427.66;2594971;22;20154;-69
2023/11/14 01:35:28;;;;;;;11.20;4.50;;;;;;;6.14;100.00;101422.91;2594887;22;20245;-70
2023/11/14 01:36:28;;;;;;;11.77;4.30;;;;;;;6.15;100.00;101430.78;2594846;22;20147;-70
2023/11/14 01:37:29;;;;;;;9.83;4.30;;;;;;;6.20;100.00;101433.16;2595160;22;20151;-70
2023/11/14 01:38:29;;;;;;;5.90;3.90;;;;;;;6.21;100.00;101434.75;2594466;22;20182;-70
2023/11/14 01:39:31;;;;;;;7.20;4.60;;;;;;;6.08;100.00;101419.72;2594961;22;20154;-70
2023/11/14 01:40:31;;;;;;;11.27;4.80;;;;;;;6.21;100.00;101443.00;2594766;22;20183;-70
2023/11/14 01:41:32;;;;;;;9.07;5.20;;;;;;;6.25;100.00;101437.53;2595010;22;20672;-69
2023/11/14 01:42:33;;;;;;;7.47;4.90;;;;;;;6.26;100.00;101433.63;2594273;22;20159;-69
2023/11/14 01:43:46;;;;;;;7.03;4.57;;;;;;;6.19;100.00;101412.34;2594417;22;20176;-69
2023/11/14 01:44:47;;;;;;;12.38;4.30;;;;;;;6.30;100.00;101437.97;2595005;22;20222;-69
2023/11/14 01:45:48;;;;;;;8.43;4.77;;;;;;;6.31;100.00;101433.25;2594977;22;20416;-69
2023/11/14 01:46:48;;;;;;;8.30;5.03;;;;;;;6.33;100.00;101428.94;2581688;23;20644;-69
2023/11/14 01:47:50;;;;;;;7.73;4.37;;;;;;;5.49;100.00;101296.28;2581311;23;20218;-70
2023/11/14 01:48:51;;;;;;;7.80;4.18;;;;;;;5.80;100.00;101347.22;2594937;22;20186;-70
2023/11/14 01:49:52;;;;;;;8.18;4.40;;;;;;;6.40;100.00;101434.47;2594755;22;20162;-70
2023/11/14 01:50:53;;;;;;;8.00;4.65;;;;;;;6.37;100.00;101437.22;2581449;23;20203;-69
2023/11/14 01:51:53;;;;;;;8.50;4.40;;;;;;;6.35;100.00;101434.06;2581633;23;20645;-70
2023/11/14 01:52:54;;;;;;;6.77;4.10;;;;;;;6.36;100.00;101427.38;2593777;22;20603;-70
2023/11/14 01:53:55;;;;;;;13.15;4.95;;;;;;;6.41;100.00;101427.78;2594642;22;20497;-70
2023/11/14 01:54:56;;;;;;;5.97;3.93;;;;;;;6.39;100.00;101429.34;2595062;22;20151;-69
2023/11/14 01:55:57;;;;;;;6.47;3.80;;;;;;;5.27;100.00;101258.03;2594958;22;20403;-69
2023/11/14 01:56:58;;;;;;;7.97;4.00;;;;;;;6.21;100.00;101404.47;2594827;22;20147;-70
2023/11/14 01:57:58;;;;;;;13.67;5.13;;;;;;;6.32;100.00;101423.81;2594901;22;20620;-70
2023/11/14 01:58:59;;;;;;;7.40;4.73;;;;;;;6.29;100.00;101428.13;2594872;22;20886;-70
2023/11/14 02:00:01;;;;;;;6.80;3.90;;;;;;;6.17;100.00;101406.44;2594820;22;20216;-69
2023/11/14 02:01:02;;;;;;;6.60;3.30;;;;;;;6.26;100.00;101422.59;2594707;22;20219;-70
2023/11/14 02:02:04;;;;;;;6.93;3.92;;;;;;;6.24;100.00;101424.94;2594397;22;20188;-70
2023/11/14 02:03:04;;;;;;;6.85;4.05;;;;;;;5.97;100.00;101379.56;2594269;22;20496;-70
2023/11/14 02:04:10;;;;;;;9.07;3.80;;;;;;;6.20;100.00;101415.88;2595013;22;20222;-70
2023/11/14 02:05:11;;;;;;;7.93;4.03;;;;;;;6.16;100.00;101421.34;2594655;22;20142;-69
2023/11/14 02:06:11;;;;;;;8.53;4.07;;;;;;;6.13;100.00;101433.13;2581403;23;20222;-69
2023/11/14 02:07:12;;;;;;;6.50;4.00;;;;;;;6.10;100.00;101446.88;2580813;23;20159;-70
2023/11/14 02:08:13;;;;;;;5.20;3.50;;;;;;;6.13;100.00;101457.91;2594778;22;20147;-70
2023/11/14 02:09:13;;;;;;;9.30;4.30;;;;;;;6.08;100.00;101455.50;2594646;22;20147;-69
2023/11/14 02:10:14;;;;;;;7.77;3.60;;;;;;;6.15;100.00;101482.28;2594792;22;20174;-69
2023/11/14 02:11:14;;;;;;;4.43;3.33;;;;;;;6.08;100.00;101458.25;2594865;22;20224;-70
2023/11/14 02:12:15;;;;;;;8.07;3.97;;;;;;;6.10;100.00;101457.88;2594380;22;20158;-69
2023/11/14 02:13:15;;;;;;;7.03;4.57;;;;;;;6.10;100.00;101450.41;2594100;22;20222;-69
2023/11/14 02:14:16;;;;;;;7.30;4.47;;;;;;;6.12;100.00;101439.81;2594963;22;20148;-69
2023/11/14 02:15:16;;;;;;;8.17;3.60;;;;;;;6.01;100.00;101432.66;2581296;23;20156;-69
2023/11/14 02:16:17;;;;;;;6.53;5.03;;;;;;;6.12;100.00;101433.50;2581538;23;20155;-69
2023/11/14 02:17:17;;;;;;;7.87;5.07;;;;;;;6.11;100.00;101438.22;2594508;22;20947;-69
2023/11/14 02:18:21;;;;;;;6.67;4.80;;;;;;;5.87;100.00;101394.03;2594697;22;20171;-69
2023/11/14 02:19:22;;;;;;;7.82;5.57;;;;;;;6.14;100.00;101433.91;2594876;22;20155;-69
2023/11/14 02:20:23;;;;;;;9.35;4.63;;;;;;;6.16;100.00;101446.13;2594734;22;20258;-69
2023/11/14 02:21:23;;;;;;;7.70;4.40;;;;;;;6.13;100.00;101438.63;2594142;22;20753;-70
2023/11/14 02:22:24;;;;;;;10.20;5.27;;;;;;;6.04;100.00;101423.63;2594215;22;20150;-69
2023/11/14 02:23:28;;;;;;;8.02;5.47;;;;;;;6.16;100.00;101437.09;2594027;22;20531;-69
2023/11/14 02:24:30;;;;;;;11.07;5.25;;;;;;;6.11;100.00;101429.19;2594586;22;20213;-69
2023/11/14 02:25:31;;;;;;;8.32;5.03;;;;;;;5.77;100.00;101389.19;2594537;22;20205;-69
2023/11/14 02:26:31;;;;;;;9.37;5.70;;;;;;;6.15;100.00;101427.25;2594839;22;20151;-69
2023/11/14 02:27:34;;;;;;;9.67;4.63;;;;;;;6.15;100.00;101424.50;2594852;22;20154;-70
2023/11/14 02:28:34;;;;;;;8.68;5.28;;;;;;;6.18;100.00;101430.03;2594820;22;20558;-69
2023/11/14 02:29:37;;;;;;;10.30;5.03;;;;;;;6.16;100.00;101431.59;2594774;22;20174;-69
2023/11/14 02:30:38;;;;;;;9.65;5.30;;;;;;;6.13;100.00;101418.56;2581187;23;20233;-69
2023/11/14 02:31:38;;;;;;;9.77;6.10;;;;;;;5.87;100.00;101372.00;2581375;23;20652;-69
2023/11/14 02:32:38;;;;;;;9.87;6.30;;;;;;;6.24;100.00;101422.97;2580797;23;20155;-69
2023/11/14 02:33:39;;;;;;;7.13;5.03;;;;;;;5.28;100.00;101273.38;2580712;23;20162;-70
2023/11/14 02:34:39;;;;;;;9.27;5.73;;;;;;;6.27;100.00;101424.19;2581269;23;20596;-69
2023/11/14 02:35:40;;;;;;;9.30;6.37;;;;;;;6.31;100.00;101427.75;2580873;23;20152;-69
2023/11/14 02:36:41;;;;;;;13.57;5.27;;;;;;;6.36;100.00;101427.38;2594884;22;20187;-69
2023/11/14 02:37:41;;;;;;;9.20;5.47;;;;;;;5.50;100.00;101286.88;2594670;22;20602;-69
2023/11/14 02:38:41;;;;;;;8.53;4.80;;;;;;;6.36;100.00;101422.66;2594798;22;20182;-69
2023/11/14 02:39:42;;;;;;;9.70;5.90;;;;;;;6.39;100.00;101427.41;2594680;22;20502;-69
2023/11/14 02:40:47;;;;;;;8.10;5.00;;;;;;;6.01;100.00;101364.63;2594658;22;20244;-69
2023/11/14 02:41:48;;;;;;;7.38;4.63;;;;;;;6.41;100.00;101422.28;2594745;22;20135;-69
2023/11/14 02:42:48;;;;;;;8.93;5.00;;;;;;;6.40;100.00;101419.94;2594366;22;20151;-69
2023/11/14 02:43:49;;;;;;;8.63;4.63;;;;;;;6.22;100.00;101392.31;2594224;22;20143;-69
2023/11/14 02:44:49;;;;;;;9.30;4.73;;;;;;;6.40;100.00;101426.22;2594789;22;20233;-69
2023/11/14 02:45:50;;;;;;;8.23;4.50;;;;;;;6.44;100.00;101431.75;2594482;22;20161;-69
2023/11/14 02:46:50;;;;;;;8.43;4.60;;;;;;;6.44;100.00;101432.53;2581094;23;20675;-69
2023/11/14 02:47:51;;;;;;;9.07;5.20;;;;;;;6.38;100.00;101430.53;2581129;23;20154;-70
2023/11/14 02:48:52;;;;;;;6.87;4.73;;;;;;;6.39;100.00;101441.16;2594647;22;20229;-69
2023/11/14 02:49:55;;;;;;;8.80;4.57;;;;;;;6.36;100.00;101427.38;2593950;22;20157;-69
2023/11/14 02:50:56;;;;;;;8.93;4.38;;;;;;;6.32;100.00;101434.81;2594774;22;20776;-69
2023/11/14 02:51:57;;;;;;;8.70;4.70;;;;;;;6.28;100.00;101432.06;2594441;22;20548;-69
2023/11/14 02:52:59;;;;;;;7.63;4.60;;;;;;;6.26;100.00;101433.63;2594152;22;20237;-69
2023/11/14 02:53:59;;;;;;;8.57;4.22;;;;;;;6.08;100.00;101416.19;2594656;22;20152;-69
2023/11/14 02:54:59;;;;;;;6.93;4.33;;;;;;;6.21;100.00;101434.75;2594733;22;20159;-69
2023/11/14 02:56:01;;;;;;;8.63;4.87;;;;;;;6.20;100.00;101432.41;2594714;22;20503;-69
2023/11/14 02:57:05;;;;;;;7.35;4.80;;;;;;;6.20;100.00;101437.91;2594731;22;20149;-70
2023/11/14 02:58:07;;;;;;;9.38;4.45;;;;;;;6.19;100.00;101442.59;2594753;22;20596;-69
2023/11/14 02:59:07;;;;;;;7.53;4.18;;;;;;;6.18;100.00;101443.78;2594604;22;20174;-69
2023/11/14 03:00:08;;;;;;;7.63;4.73;;;;;;;5.80;100.00;101396.72;2594520;22;20206;-69
2023/11/14 03:01:09;;;;;;;7.57;4.30;;;;;;;6.19;100.00;101461.88;2593541;22;20485;-69
2023/11/14 03:02:09;;;;;;;9.33;4.77;;;;;;;5.57;100.00;101371.34;2593704;22;20181;-69
2023/11/14 03:03:10;;;;;;;8.37;4.43;;;;;;;5.89;100.00;101419.19;2594505;22;20155;-70
2023/11/14 03:04:10;;;;;;;6.63;4.03;;;;;;;6.18;100.00;101459.50;2594277;22;20149;-70
2023/11/14 03:05:12;;;;;;;8.50;5.73;;;;;;;6.21;100.00;101459.53;2594646;22;20405;-69
2023/11/14 03:06:13;;;;;;;8.02;5.65;;;;;;;6.20;100.00;101457.94;2594675;22;20143;-70
2023/11/14 03:07:13;;;;;;;7.20;4.17;;;;;;;6.29;100.00;101469.41;2594779;22;20167;-69
2023/11/14 03:08:14;;;;;;;8.00;4.60;;;;;;;6.28;100.00;101458.78;2594567;22;20147;-69
2023/11/14 03:09:14;;;;;;;5.67;4.00;;;;;;;6.23;100.00;101457.19;2594545;22;20490;-69
2023/11/14 03:10:15;;;;;;;6.87;4.60;;;;;;;6.36;100.00;101471.44;2594682;22;20144;-69
2023/11/14 03:11:15;;;;;;;7.70;4.63;;;;;;;6.28;100.00;101459.59;2594915;22;20194;-70
2023/11/14 03:12:16;;;;;;;10.27;5.93;;;;;;;6.20;100.00;101470.94;2594241;22;20151;-70
2023/11/14 03:13:17;;;;;;;8.07;5.20;;;;;;;5.23;100.00;101329.44;2593976;22;20297;-69
2023/11/14 03:14:19;;;;;;;9.25;5.03;;;;;;;6.20;100.00;101466.19;2594563;22;20151;-69
2023/11/14 03:15:19;;;;;;;10.80;5.63;;;;;;;6.17;100.00;101463.44;2594608;22;20150;-69
2023/11/14 03:16:21;;;;;;;10.70;5.17;;;;;;;6.17;100.00;101468.94;2594653;22;20230;-69
2023/11/14 03:17:22;;;;;;;8.27;5.40;;;;;;;6.12;100.00;101461.84;2594648;22;20151;-69
2023/11/14 03:18:22;;;;;;;8.90;5.60;;;;;;;6.14;100.00;101462.22;2594757;22;20609;-69
2023/11/14 03:19:23;;;;;;;11.07;5.40;;;;;;;6.06;100.00;101448.81;2594003;22;20151;-69
2023/11/14 03:20:23;;;;;;;9.07;5.83;;;;;;;6.15;100.00;101468.53;2594120;22;20183;-70
2023/11/14 03:21:24;;;;;;;12.80;4.30;;;;;;;6.22;100.00;101471.31;2594044;22;20150;-69
2023/11/14 03:22:24;;;;;;;8.37;5.23;;;;;;;6.22;100.00;101463.88;2594296;22;20173;-69
2023/11/14 03:23:25;;;;;;;9.43;4.60;;;;;;;6.28;100.00;101454.09;2593884;22;20155;-70
2023/11/14 03:24:25;;;;;;;8.67;3.73;;;;;;;6.31;100.00;101458.03;2594633;22;20175;-70
2023/11/14 03:25:26;;;;;;;7.80;3.57;;;;;;;6.31;100.00;101453.28;2594526;22;20589;-69
2023/11/14 03:26:32;;;;;;;7.70;4.20;;;;;;;5.49;100.00;101321.03;2594827;22;20154;-69
2023/11/14 03:27:33;;;;;;;6.80;4.38;;;;;;;6.39;100.00;101451.38;2594754;22;20179;-70
2023/11/14 03:28:34;;;;;;;6.80;4.40;;;;;;;5.85;100.00;101369.66;2594503;22;20158;-70
2023/11/14 03:29:35;;;;;;;8.57;5.50;;;;;;;6.43;100.00;101450.25;2594621;22;20151;-70
2023/11/14 03:31:54;;;;;;;7.30;4.97;;;;;;;6.49;100.00;101454.22;2595213;22;20135;-70
2023/11/14 03:32:54;;;;;;;7.53;4.10;;;;;;;5.72;100.00;101346.34;2594696;22;20152;-70
2023/11/14 03:33:55;;;;;;;7.40;4.47;;;;;;;6.52;100.00;101456.19;2595168;22;20147;-70
2023/11/14 03:34:56;;;;;;;5.63;3.37;;;;;;;6.45;100.00;101456.16;2595251;22;20230;-70
2023/11/14 03:35:57;;;;;;;10.67;4.07;;;;;;;6.46;100.00;101465.97;2594753;22;20612;-70
2023/11/14 03:36:58;;;;;;;6.43;4.25;;;;;;;5.87;100.00;101358.25;2595558;22;20488;-70
2023/11/14 03:37:58;;;;;;;9.53;4.07;;;;;;;6.51;100.00;101456.59;2595429;22;20166;-70
2023/11/14 03:38:59;;;;;;;6.00;3.83;;;;;;;6.47;100.00;101450.25;2595475;22;20229;-70
2023/11/14 03:39:59;;;;;;;7.03;3.77;;;;;;;6.50;100.00;101464.03;2595447;22;20251;-70
2023/11/14 03:41:00;;;;;;;5.90;3.60;;;;;;;6.49;100.00;101464.41;2595302;22;20146;-69
2023/11/14 03:42:00;;;;;;;8.80;4.13;;;;;;;6.47;100.00;101462.03;2594961;22;20531;-70
2023/11/14 03:43:01;;;;;;;9.83;4.67;;;;;;;6.48;100.00;101460.91;2594739;22;20143;-70
2023/11/14 03:44:02;;;;;;;5.10;3.83;;;;;;;6.46;100.00;101448.69;2595434;22;20497;-69
2023/11/14 03:45:04;;;;;;;5.47;3.83;;;;;;;6.57;100.00;101461.31;2595525;22;20665;-70
2023/11/14 03:46:04;;;;;;;6.97;3.53;;;;;;;6.62;100.00;101460.19;2595438;22;20589;-70
2023/11/14 03:47:05;;;;;;;6.87;4.00;;;;;;;6.42;100.00;101432.13;2594820;22;20601;-70
2023/11/14 03:48:05;;;;;;;9.00;4.80;;;;;;;6.58;100.00;101454.66;2595427;22;20151;-70
2023/11/14 03:49:06;;;;;;;6.50;3.43;;;;;;;6.59;100.00;101445.22;2595313;22;20150;-70
2023/11/14 03:50:07;;;;;;;7.03;3.70;;;;;;;6.67;100.00;101446.03;2595313;22;20196;-70
2023/11/14 03:51:11;;;;;;;6.80;4.07;;;;;;;6.62;100.00;101444.44;2595352;22;20143;-70
2023/11/14 03:52:11;;;;;;;7.97;3.78;;;;;;;6.65;100.00;101445.63;2594830;22;20378;-70
2023/11/14 03:53:11;;;;;;;6.20;3.70;;;;;;;6.66;100.00;101459.00;2595140;22;20150;-70
2023/11/14 03:54:12;;;;;;;5.57;3.67;;;;;;;6.70;100.00;101464.53;2595461;22;20143;-70
2023/11/14 03:55:12;;;;;;;6.60;3.53;;;;;;;6.74;100.00;101462.59;2595359;22;20183;-70
2023/11/14 03:56:13;;;;;;;6.20;3.97;;;;;;;5.97;100.00;101352.03;2595526;22;20147;-70
2023/11/14 03:57:14;;;;;;;6.07;3.30;;;;;;;6.73;100.00;101456.31;2595405;22;20147;-70
2023/11/14 03:58:14;;;;;;;6.80;3.33;;;;;;;6.68;100.00;101453.13;2595215;22;20231;-70
2023/11/14 03:59:15;;;;;;;5.20;3.13;;;;;;;6.70;100.00;101448.81;2595361;22;20147;-70
2023/11/14 04:00:15;;;;;;;5.53;2.83;;;;;;;6.59;100.00;101456.25;2595349;22;20185;-70
2023/11/14 04:01:16;;;;;;;6.27;3.33;;;;;;;5.64;100.00;101311.72;2595351;22;20605;-69
2023/11/14 04:02:17;;;;;;;7.03;3.40;;;;;;;6.62;100.00;101449.94;2594151;22;20151;-69
2023/11/14 04:03:17;;;;;;;6.30;3.37;;;;;;;6.66;100.00;101450.75;2594772;22;20155;-69
2023/11/14 04:04:18;;;;;;;6.07;3.60;;;;;;;6.74;100.00;101452.38;2595265;22;20147;-70
2023/11/14 04:05:18;;;;;;;6.60;3.27;;;;;;;6.76;100.00;101457.50;2595344;22;20179;-70
2023/11/14 04:06:19;;;;;;;6.87;3.30;;;;;;;6.71;100.00;101463.38;2595390;22;20158;-69
2023/11/14 04:07:19;;;;;;;11.87;3.27;;;;;;;6.64;100.00;101472.41;2595298;22;20638;-70
2023/11/14 04:08:20;;;;;;;5.83;3.63;;;;;;;6.61;100.00;101467.66;2595513;22;20296;-69
2023/11/14 04:09:20;;;;;;;11.87;4.13;;;;;;;6.62;100.00;101462.94;2595257;22;20153;-70
2023/11/14 04:10:21;;;;;;;7.37;3.73;;;;;;;6.58;100.00;101468.44;2595345;22;20147;-70
2023/11/14 04:11:22;;;;;;;9.60;4.07;;;;;;;6.35;100.00;101434.06;2595184;22;20147;-70
2023/11/14 04:12:24;;;;;;;5.57;3.70;;;;;;;6.57;100.00;101474.31;2594869;22;20222;-70
2023/11/14 04:13:24;;;;;;;8.13;4.75;;;;;;;6.46;100.00;101462.44;2594701;22;20890;-70
2023/11/14 04:14:25;;;;;;;9.03;4.50;;;;;;;5.94;100.00;101394.88;2595414;22;20496;-69
2023/11/14 04:15:26;;;;;;;6.60;3.17;;;;;;;6.44;100.00;101467.53;2595416;22;20147;-69
2023/11/14 04:16:26;;;;;;;6.40;3.83;;;;;;;6.47;100.00;101464.81;2595054;22;20154;-70
2023/11/14 04:17:27;;;;;;;7.87;4.50;;;;;;;6.41;100.00;101462.81;2595240;22;20147;-70
2023/11/14 04:18:27;;;;;;;8.93;4.30;;;;;;;6.37;100.00;101470.25;2595135;22;20666;-69
2023/11/14 04:19:28;;;;;;;8.70;4.93;;;;;;;6.31;100.00;101469.81;2595144;22;20178;-70
2023/11/14 04:20:28;;;;;;;12.13;4.83;;;;;;;6.32;100.00;101478.88;2595101;22;20267;-70
2023/11/14 04:21:28;;;;;;;8.43;4.13;;;;;;;6.13;100.00;101455.16;2595442;22;20550;-70
2023/11/14 04:22:29;;;;;;;8.67;4.23;;;;;;;6.29;100.00;101483.19;2594839;22;20681;-70
2023/11/14 04:23:29;;;;;;;8.63;4.30;;;;;;;6.26;100.00;101481.19;2594802;22;20176;-70
2023/11/14 04:24:33;;;;;;;6.43;4.20;;;;;;;6.25;100.00;101479.59;2595091;22;20238;-70
2023/11/14 04:25:34;;;;;;;9.88;4.68;;;;;;;6.27;100.00;101487.50;2595091;22;20656;-70
2023/11/14 04:26:35;;;;;;;8.27;4.25;;;;;;;6.32;100.00;101481.63;2595210;22;20147;-70
2023/11/14 04:27:35;;;;;;;6.10;3.40;;;;;;;6.32;100.00;101478.88;2595290;22;20151;-69
2023/11/14 04:28:36;;;;;;;6.70;4.10;;;;;;;5.95;100.00;101418.44;2595226;22;20208;-70
2023/11/14 04:29:36;;;;;;;6.17;3.47;;;;;;;6.33;100.00;101464.72;2595299;22;20147;-70
2023/11/14 04:30:37;;;;;;;7.03;3.67;;;;;;;6.37;100.00;101470.25;2594422;22;20147;-70
2023/11/14 04:31:37;;;;;;;5.47;3.43;;;;;;;6.38;100.00;101475.38;2595396;22;20175;-70
2023/11/14 04:32:38;;;;;;;5.87;3.80;;;;;;;6.37;100.00;101470.25;2594744;22;20194;-70
2023/11/14 04:33:38;;;;;;;7.63;4.47;;;;;;;6.40;100.00;101467.53;2594599;22;20209;-70
2023/11/14 04:34:39;;;;;;;8.17;3.87;;;;;;;6.39;100.00;101465.94;2595025;22;20689;-70
2023/11/14 04:35:39;;;;;;;7.63;4.20;;;;;;;6.41;100.00;101457.31;2595193;22;20162;-70
2023/11/14 04:36:40;;;;;;;6.07;3.43;;;;;;;6.44;100.00;101454.56;2595293;22;20208;-69
2023/11/14 04:37:41;;;;;;;7.63;4.57;;;;;;;6.44;100.00;101448.25;2595127;22;20605;-69
2023/11/14 04:38:42;;;;;;;5.67;3.43;;;;;;;6.46;100.00;101441.19;2595415;22;20556;-70
2023/11/14 04:39:43;;;;;;;11.53;4.40;;;;;;;6.46;100.00;101446.72;2595029;22;20151;-70
2023/11/14 04:40:43;;;;;;;5.13;3.43;;;;;;;6.50;100.00;101446.72;2594975;22;20420;-69
2023/11/14 04:41:44;;;;;;;7.20;3.77;;;;;;;6.34;100.00;101419.50;2594943;22;20155;-70
2023/11/14 04:42:45;;;;;;;7.10;3.50;;;;;;;6.50;100.00;101449.47;2594926;22;20151;-70
2023/11/14 04:43:46;;;;;;;7.22;3.60;;;;;;;5.92;100.00;101371.66;2594514;22;20759;-70
2023/11/14 04:44:51;;;;;;;6.43;3.70;;;;;;;6.43;100.00;101438.44;2594683;22;20221;-70